Hastings Natural History Reservation, California Weather observations

Data are for 10 minute period ending at time listed.
 Day   Time   Solar   Ave.   Ave.  Ave.  Vector  Max.   Baro.   Total    
  of    of     Rad.   Air    Rel.  Wind   Wind   Wind  Press.  Precip.   
Year   Day            Temp.  Hum.  Speed  Dir.   Gust                    
2016   (PST)  Kw/m2    F      %     mph   deg.    mph    mb.     in.     
-------------------------------------------------------------------------
 236   16:00   0.34   79.7    23    3.8   251     7.7   955.0    0.00 
 236   16:10   0.32   79.7    23    2.6   254     7.1   955.0    0.00 
 236   16:20   0.27   80.4    23    1.8   272     5.0   955.0    0.00 
 236   16:30   0.24   79.4    22    3.5   247     6.7   954.9    0.00 
 236   16:40   0.23   79.1    21    2.0   261     5.8   954.8    0.00 
 236   16:50   0.24   79.5    20    2.7   259     6.4   954.8    0.00 
 236   17:00   0.25   79.1    22    2.3   261     5.9   954.7    0.00 
 236   17:10   0.24   78.9    24    2.9   254     6.9   954.7    0.00 
 236   17:20   0.21   78.2    29    4.0   246     8.2   954.7    0.00 
 236   17:30   0.20   76.6    33    4.2   239     7.4   954.7    0.00 
 236   17:40   0.16   74.9    36    3.2   246     5.8   954.7    0.00 
 236   17:50   0.06   73.4    38    1.6   254     4.5   954.6    0.00 
 236   18:00   0.04   72.7    39    1.6   267     3.5   954.6    0.00 
 236   18:10   0.03   71.4    42    1.5   253     3.4   954.6    0.00 
 236   18:20   0.02   70.1    44    1.1   233     2.6   954.6    0.00 
 236   18:30   0.01   69.6    45    0.1   202     1.5   954.7    0.00 
 236   18:40   0.00   68.6    46    0.4   226     1.3   954.7    0.00 
 236   18:50   0.00   67.6    47    0.0     0     0.0   954.8    0.00 
 236   19:00   0.00   66.4    48    0.1    55     0.7   954.9    0.00 
 236   19:10   0.00   65.3    50    0.5    46     1.2   955.0    0.00 
 236   19:20   0.00   64.3    50    0.3    51     1.4   955.1    0.00 
 236   19:30   0.00   63.4    47    0.8    54     1.7   955.3    0.00 
 236   19:40   0.00   62.7    44    1.1    47     1.5   955.5    0.00 
 236   19:50   0.00   62.1    42    0.9    42     1.4   955.6    0.00 
 236   20:00   0.00   61.3    42    1.3    44     1.7   955.7    0.00 
 236   20:10   0.00   60.6    39    1.4    41     1.8   955.9    0.00 
 236   20:20   0.00   60.0    38    1.4    46     1.9   955.9    0.00 
 236   20:30   0.00   59.4    36    1.0    46     1.5   955.9    0.00 
 236   20:40   0.00   59.1    37    0.4    52     1.1   955.9    0.00 
 236   20:50   0.00   58.8    35    0.7    51     1.5   955.9    0.00 
 236   21:00   0.00   58.4    35    0.7    52     1.5   956.0    0.00 
 236   21:10   0.00   58.2    35    0.5    49     1.9   956.1    0.00 
 236   21:20   0.00   57.9    36    0.4    50     1.1   956.1    0.00 
 236   21:30   0.00   57.8    36    0.2    47     1.1   956.1    0.00 
 236   21:40   0.00   57.6    37    0.6    58     1.0   956.1    0.00 
 236   21:50   0.00   57.4    34    0.2    70     1.1   956.0    0.00 
 236   22:00   0.00   57.3    34    0.4    54     1.6   956.0    0.00 
 236   22:10   0.00   57.2    35    0.0    42     0.2   956.0    0.00 
 236   22:20   0.00   56.9    36    0.2    49     0.8   956.0    0.00 
 236   22:30   0.00   56.8    34    0.3    48     1.2   955.9    0.00 
 236   22:40   0.00   56.8    35    0.2    48     1.4   955.9    0.00 
 236   22:50   0.00   56.6    35    0.1    31     0.9   955.9    0.00 
 236   23:00   0.00   56.4    35    0.1    48     0.9   955.8    0.00 
 236   23:10   0.00   56.4    35    0.2    51     1.2   955.8    0.00 
 236   23:20   0.00   56.3    34    0.3    58     1.4   955.8    0.00 
 236   23:30   0.00   56.2    33    0.2    64     0.9   955.8    0.00 
 236   23:40   0.00   56.2    32    0.5    68     1.4   955.8    0.00 
 236   23:50   0.00   56.3    31    0.4    48     1.5   955.8    0.00 
 237    0:00   0.00   56.0    30    0.5    49     1.6   955.9    0.00 
 237    0:10   0.00   55.9    29    1.4    60     1.9   955.9    0.00 
 237    0:20   0.00   55.9    29    1.2    51     1.7   955.9    0.00 
 237    0:30   0.00   55.8    29    0.1    49     0.9   955.8    0.00 
 237    0:40   0.00   55.4    28    1.1    59     1.9   955.8    0.00 
 237    0:50   0.00   55.4    28    0.9    49     1.8   955.8    0.00 
 237    1:00   0.00   55.3    28    0.3    63     0.9   955.6    0.00 
 237    1:10   0.00   55.3    28    0.4    62     1.3   955.6    0.00 
 237    1:20   0.00   55.1    28    0.7    57     1.7   955.6    0.00 
 237    1:30   0.00   55.1    27    0.9    57     1.6   955.6    0.00 
 237    1:40   0.00   55.1    27    1.3    49     2.3   955.5    0.00 
 237    1:50   0.00   55.0    27    0.1    45     1.1   955.5    0.00 
 237    2:00   0.00   54.9    28    0.5    58     1.9   955.5    0.00 
 237    2:10   0.00   54.9    27    0.3    49     1.2   955.5    0.00 
 237    2:20   0.00   54.9    27    0.2    46     0.9   955.5    0.00 
 237    2:30   0.00   54.9    27    0.1    48     1.1   955.4    0.00 
 237    2:40   0.00   54.8    28    0.6    57     1.7   955.3    0.00 
 237    2:50   0.00   54.9    28    0.1    60     1.2   955.3    0.00 
 237    3:00   0.00   54.7    28    0.2    52     1.2   955.2    0.00 
 237    3:10   0.00   54.4    28    0.4    66     1.8   955.1    0.00 
 237    3:20   0.00   54.3    28    0.5    64     1.4   955.0    0.00 
 237    3:30   0.00   54.3    28    0.2    46     0.7   955.0    0.00 
 237    3:40   0.00   54.2    28    0.1    51     0.8   955.0    0.00 
 237    3:50   0.00   54.0    29    0.1    48     1.8   954.9    0.00 
 237    4:00   0.00   53.9    29    0.1    31     0.9   954.9    0.00 
 237    4:10   0.00   53.7    29    0.3    50     1.6   954.9    0.00 
 237    4:20   0.00   53.7    29    0.3    67     1.2   954.9    0.00 
 237    4:30   0.00   53.8    30    0.4   285     1.8   954.8    0.00 
 237    4:40   0.00   53.5    30    0.1    37     1.0   954.8    0.00 
 237    4:50   0.00   53.4    31    0.2    55     0.9   954.9    0.00 
 237    5:00   0.00   53.6    30    0.6    68     1.5   954.9    0.00 
 237    5:10   0.00   53.8    30    0.2    53     1.1   954.9    0.00 
 237    5:20   0.00   53.7    30    0.2    49     1.2   955.0    0.00 
 237    5:30   0.00   53.5    30    0.3    56     1.2   955.1    0.00 
 237    5:40   0.00   53.7    30    0.1    78     0.9   955.2    0.00 
 237    5:50   0.00   53.7    30    0.4    57     1.6   955.2    0.00 
 237    6:00   0.01   53.9    30    0.5    63     1.5   955.3    0.00 
 237    6:10   0.01   54.3    30    0.6    66     1.5   955.3    0.00 
 237    6:20   0.03   54.6    30    0.4    53     1.1   955.5    0.00 
 237    6:30   0.03   54.9    31    0.4    49     1.5   955.6    0.00 
 237    6:40   0.03   55.3    32    0.3    52     1.6   955.6    0.00 
 237    6:50   0.04   55.9    32    1.1    55     1.6   955.6    0.00 
 237    7:00   0.04   56.8    31    0.6    75     1.5   955.7    0.00 
 237    7:10   0.07   58.3    28    0.2    72     0.7   955.7    0.00 
 237    7:20   0.18   60.2    26    0.4    70     1.0   955.8    0.00 
 237    7:30   0.21   63.5    24    0.5    75     1.2   955.7    0.00 
 237    7:40   0.24   67.2    22    0.0     0     0.0   955.7    0.00 
 237    7:50   0.27   70.5    20    0.1    84     0.9   955.7    0.00 
 237    8:00   0.30   73.1    16    0.1    83     0.9   955.7    0.00 
 237    8:10   0.33   74.5    16    0.9   224     2.1   955.6    0.00 
 237    8:20   0.35   75.6    14    1.2   235     2.3   955.5    0.00 
 237    8:30   0.38   76.5    14    2.2   232     4.3   955.4    0.00 
 237    8:40   0.41   76.4    14    3.1   246     4.6   955.3    0.00 
 237    8:50   0.43   77.1    15    0.9   266     3.9   955.3    0.00 
 237    9:00   0.45   78.2    15    1.6   259     5.3   955.3    0.00 
 237    9:10   0.47   77.3    15    2.9   251     6.2   955.4    0.00 
 237    9:20   0.50   77.4    14    2.5   248     5.8   955.5    0.00 
 237    9:30   0.53   78.2    14    2.5   242     6.2   955.5    0.00 
 237    9:40   0.57   79.1    15    2.7   250     6.4   955.5    0.00 
 237    9:50   0.59   79.6    14    3.0   246     6.9   955.5    0.00 
 237   10:00   0.61   79.5    14    4.2   242     8.7   955.5    0.00 
 237   10:10   0.63   80.8    14    1.1   276     4.2   955.5    0.00 
 237   10:20   0.65   80.3    14    3.3   249     7.2   955.6    0.00 
 237   10:30   0.67   80.3    16    3.8   237     8.3   955.6    0.00 
 237   10:40   0.66   81.7    15    4.3   242     8.9   955.5    0.00 
 237   10:50   0.71   81.5    14    5.0   242     9.9   955.5    0.00 
 237   11:00   0.73   81.6    15    4.9   244     9.1   955.4    0.00 
 237   11:10   0.73   82.1    16    4.8   241     9.9   955.4    0.00 
 237   11:20   0.73   82.3    16    4.7   239    10.2   955.4    0.00 
 237   11:30   0.74   82.3    16    5.3   239     9.4   955.4    0.00 
 237   11:40   0.75   83.1    16    5.8   232    11.8   955.3    0.00 
 237   11:50   0.77   83.3    18    4.1   250     9.7   955.3    0.00 
 237   12:00   0.78   84.5    18    3.0   282    10.7   955.2    0.00 
 237   12:10   0.78   85.4    19    2.5   327     7.3   955.2    0.00 
 237   12:20   0.79   85.2    19    5.3   246     9.6   955.1    0.00 
 237   12:30   0.80   84.4    18    4.0   241    11.9   955.0    0.00 
 237   12:40   0.80   84.9    17    4.2   253     8.5   954.9    0.00 
 237   12:50   0.80   86.6    16    3.7   255    11.4   954.8    0.00 
 237   13:00   0.79   86.8    15    2.2   260     6.9   954.8    0.00 
 237   13:10   0.78   88.4    13    2.8   262    10.6   954.7    0.00 
 237   13:20   0.77   87.9    13    4.1   253     9.1   954.6    0.00 
 237   13:30   0.77   87.7    14    3.4   255     9.6   954.6    0.00 
 237   13:40   0.76   86.6    18    4.4   250    10.4   954.5    0.00 
 237   13:50   0.75   86.5    18    3.7   262     8.7   954.4    0.00 
 237   14:00   0.73   87.6    19    2.6   291     8.6   954.3    0.00 
 237   14:10   0.72   87.7    17    2.7   270     9.4   954.3    0.00 
 237   14:20   0.70   86.9    17    4.7   253    11.8   954.2    0.00 
 237   14:30   0.68   86.2    19    3.7   264    11.6   954.1    0.00 
 237   14:40   0.67   88.0    19    2.0   321     6.1   954.1    0.00 
 237   14:50   0.64   87.1    18    2.2   287     6.5   954.0    0.00 
 237   15:00   0.62   85.4    19    4.7   252    10.3   953.9    0.00 
 237   15:10   0.60   85.4    19    2.3   268     7.9   953.8    0.00 
 237   15:20   0.57   85.2    17    3.8   253     9.9   953.7    0.00 
 237   15:30   0.55   85.2    17    2.8   284     9.7   953.7    0.00 
 237   15:40   0.53   86.6    15    2.0   336     8.8   953.6    0.00 
 237   15:50   0.50   85.8    16    2.5   273     6.9   953.6    0.00 

Return to Hastings Natural History Reservation graphs page.


Western Regional Climate Center,wrcc@dri.edu